Главная страница
METAR-TAF:

METAR-TAF

Аэропорты :

Сиэтл / Такома, Вашингтон, США

Сиэтл/Такома

широта: 47-26-41N, долгота: 122-18-49W, высота над уровнем моря: 130 м

Текущие метеонаблюдения

Эта сводка был подготовлена 1 час и 2 минут назад, в 22:53 UTC
Ветер 10 Узел от северно-северо-западный с порывами до 15 Узел
Температура 15°C
Влажность 48%
Давление 1027 hPa
Видимость: 16.1 км
небольшая облачность на высоте 4500 фута

METAR: KSEA 222253Z 34010G15KT 10SM FEW045 15/04 A3033 RMK AO2 SLP279 T01500044

Время: 16:55 (23:55 UTC)

Прогноз

Эта сводка был подготовлена 35 минут назад, в 23:20 UTC
Прогноз действительный с 23-го 00 UTC до 24-го 06 UTC
Ветер 12 Узел от северный
Видимость: 10 км
ясное небо
С 23-го 0400 UTC
Ветер 8 Узел от северо-северо-восточный
Видимость: 10 км
ясное небо
С 23-го 2000 UTC
Ветер 12 Узел от северный
Видимость: 10 км
ясное небо

TAF: KSEA 222320Z 2300/2406 36012KT P6SM SKC FM230400 02008KT P6SM SKC FM232000 36012KT P6SM SKC

Метеонаблюдения и прогнозы для более 4000 аэропортов (сводки METAR и TAF).

Имеющиеся станции представлены на карте желтыми и красными точками.

Чтобы увидеть название станции, наведите на нее мышь.

Затем щелкните, чтобы увидеть метеонаблюдения и метеопрогнозы.

Управление картой: чтобы увеличить масштаб, щелкните зеленые кнопки с черным крестиком; чтобы уменьшить масштаб, щелкните зеленую кнопку с тире; для просмотра соседних карт щелкайте зеленые стрелки.


METAR-TAF: